sensor_id;sensor_type;location;lat;lon;timestamp;temperature;humidity
46562;DHT22;32289;42.688;23.330;2023-07-13T00:00:55;21.80;85.70
46562;DHT22;32289;42.688;23.330;2023-07-13T00:04:36;21.70;86.20
46562;DHT22;32289;42.688;23.330;2023-07-13T00:08:17;21.80;86.20
46562;DHT22;32289;42.688;23.330;2023-07-13T00:11:59;21.70;86.70
46562;DHT22;32289;42.688;23.330;2023-07-13T00:15:39;21.70;85.70
46562;DHT22;32289;42.688;23.330;2023-07-13T00:19:22;21.60;86.80
46562;DHT22;32289;42.688;23.330;2023-07-13T00:23:02;21.50;87.80
46562;DHT22;32289;42.688;23.330;2023-07-13T00:26:43;21.60;88.00
46562;DHT22;32289;42.688;23.330;2023-07-13T00:30:26;21.50;86.30
46562;DHT22;32289;42.688;23.330;2023-07-13T00:34:07;21.40;87.90
46562;DHT22;32289;42.688;23.330;2023-07-13T00:37:48;21.30;88.90
46562;DHT22;32289;42.688;23.330;2023-07-13T00:41:30;21.40;88.00
46562;DHT22;32289;42.688;23.330;2023-07-13T00:48:59;21.40;89.80
46562;DHT22;32289;42.688;23.330;2023-07-13T00:52:45;21.40;90.20
46562;DHT22;32289;42.688;23.330;2023-07-13T00:56:28;21.40;91.10
46562;DHT22;32289;42.688;23.330;2023-07-13T01:00:09;21.30;91.70
46562;DHT22;32289;42.688;23.330;2023-07-13T01:03:50;21.30;91.60
46562;DHT22;32289;42.688;23.330;2023-07-13T01:07:31;21.30;91.60
46562;DHT22;32289;42.688;23.330;2023-07-13T01:11:18;21.10;92.50
46562;DHT22;32289;42.688;23.330;2023-07-13T01:15:00;21.20;92.60
46562;DHT22;32289;42.688;23.330;2023-07-13T01:18:41;21.30;92.70
46562;DHT22;32289;42.688;23.330;2023-07-13T01:22:22;21.30;92.90
46562;DHT22;32289;42.688;23.330;2023-07-13T01:26:06;21.20;93.50
46562;DHT22;32289;42.688;23.330;2023-07-13T01:29:46;21.20;93.50
46562;DHT22;32289;42.688;23.330;2023-07-13T01:33:28;21.20;94.20
46562;DHT22;32289;42.688;23.330;2023-07-13T01:37:10;21.10;93.70
46562;DHT22;32289;42.688;23.330;2023-07-13T01:40:52;21.00;95.00
46562;DHT22;32289;42.688;23.330;2023-07-13T01:44:33;21.00;95.70
46562;DHT22;32289;42.688;23.330;2023-07-13T01:48:14;20.90;96.30
46562;DHT22;32289;42.688;23.330;2023-07-13T01:51:54;20.70;97.10
46562;DHT22;32289;42.688;23.330;2023-07-13T01:55:35;20.70;97.20
46562;DHT22;32289;42.688;23.330;2023-07-13T01:59:16;20.70;97.60
46562;DHT22;32289;42.688;23.330;2023-07-13T02:02:57;20.60;98.10
46562;DHT22;32289;42.688;23.330;2023-07-13T02:06:38;20.80;98.50
46562;DHT22;32289;42.688;23.330;2023-07-13T02:10:20;20.70;98.60
46562;DHT22;32289;42.688;23.330;2023-07-13T02:14:01;20.70;99.20
46562;DHT22;32289;42.688;23.330;2023-07-13T02:17:42;20.70;98.90
46562;DHT22;32289;42.688;23.330;2023-07-13T02:21:23;20.70;99.40
46562;DHT22;32289;42.688;23.330;2023-07-13T02:25:05;20.50;99.90
46562;DHT22;32289;42.688;23.330;2023-07-13T02:28:46;20.70;99.90
46562;DHT22;32289;42.688;23.330;2023-07-13T02:32:27;20.60;99.80
46562;DHT22;32289;42.688;23.330;2023-07-13T02:36:08;20.60;99.90
46562;DHT22;32289;42.688;23.330;2023-07-13T02:39:49;20.60;99.90
46562;DHT22;32289;42.688;23.330;2023-07-13T02:43:30;20.70;99.90
46562;DHT22;32289;42.688;23.330;2023-07-13T02:47:11;20.50;99.90
46562;DHT22;32289;42.688;23.330;2023-07-13T02:50:53;20.50;99.90
46562;DHT22;32289;42.688;23.330;2023-07-13T02:54:34;20.40;99.90
46562;DHT22;32289;42.688;23.330;2023-07-13T02:58:15;20.50;99.90
46562;DHT22;32289;42.688;23.330;2023-07-13T03:01:58;20.20;99.90
46562;DHT22;32289;42.688;23.330;2023-07-13T03:05:42;20.30;99.90
46562;DHT22;32289;42.688;23.330;2023-07-13T03:09:23;20.30;99.90
46562;DHT22;32289;42.688;23.330;2023-07-13T03:13:04;20.20;99.90
46562;DHT22;32289;42.688;23.330;2023-07-13T03:16:46;20.40;99.90
46562;DHT22;32289;42.688;23.330;2023-07-13T03:20:26;20.40;99.90
46562;DHT22;32289;42.688;23.330;2023-07-13T03:24:07;20.30;99.90
46562;DHT22;32289;42.688;23.330;2023-07-13T03:27:48;20.30;99.90
46562;DHT22;32289;42.688;23.330;2023-07-13T03:31:29;20.30;99.90
46562;DHT22;32289;42.688;23.330;2023-07-13T03:35:10;20.30;99.90
46562;DHT22;32289;42.688;23.330;2023-07-13T03:38:55;20.30;99.90
46562;DHT22;32289;42.688;23.330;2023-07-13T03:42:35;20.40;99.90
46562;DHT22;32289;42.688;23.330;2023-07-13T03:46:18;20.50;99.90
46562;DHT22;32289;42.688;23.330;2023-07-13T03:49:58;20.60;99.90
46562;DHT22;32289;42.688;23.330;2023-07-13T03:53:41;20.80;99.90
46562;DHT22;32289;42.688;23.330;2023-07-13T03:57:22;20.90;99.90
46562;DHT22;32289;42.688;23.330;2023-07-13T04:01:04;21.20;99.40
46562;DHT22;32289;42.688;23.330;2023-07-13T04:04:45;22.30;95.50
46562;DHT22;32289;42.688;23.330;2023-07-13T04:08:28;22.60;93.20
46562;DHT22;32289;42.688;23.330;2023-07-13T04:12:09;23.30;90.80
46562;DHT22;32289;42.688;23.330;2023-07-13T04:15:51;24.40;84.10
46562;DHT22;32289;42.688;23.330;2023-07-13T04:19:32;24.00;85.00
46562;DHT22;32289;42.688;23.330;2023-07-13T04:23:13;24.70;80.10
46562;DHT22;32289;42.688;23.330;2023-07-13T04:26:54;25.30;80.50
46562;DHT22;32289;42.688;23.330;2023-07-13T04:30:36;24.90;80.60
46562;DHT22;32289;42.688;23.330;2023-07-13T04:34:17;25.90;76.20
46562;DHT22;32289;42.688;23.330;2023-07-13T04:37:58;26.50;72.40
46562;DHT22;32289;42.688;23.330;2023-07-13T04:41:39;25.50;76.10
46562;DHT22;32289;42.688;23.330;2023-07-13T04:45:20;25.90;73.60
46562;DHT22;32289;42.688;23.330;2023-07-13T04:49:01;26.00;72.70
46562;DHT22;32289;42.688;23.330;2023-07-13T04:52:44;27.10;69.50
46562;DHT22;32289;42.688;23.330;2023-07-13T04:56:26;27.20;69.50
46562;DHT22;32289;42.688;23.330;2023-07-13T05:00:07;27.10;68.30
46562;DHT22;32289;42.688;23.330;2023-07-13T05:03:48;28.00;67.20
46562;DHT22;32289;42.688;23.330;2023-07-13T05:07:28;27.20;67.80
46562;DHT22;32289;42.688;23.330;2023-07-13T05:11:10;27.00;68.20
46562;DHT22;32289;42.688;23.330;2023-07-13T05:14:51;27.90;66.20
46562;DHT22;32289;42.688;23.330;2023-07-13T05:18:33;27.10;67.50
46562;DHT22;32289;42.688;23.330;2023-07-13T05:22:14;26.30;71.10
46562;DHT22;32289;42.688;23.330;2023-07-13T05:25:55;26.00;72.20
46562;DHT22;32289;42.688;23.330;2023-07-13T05:29:36;27.70;69.30
46562;DHT22;32289;42.688;23.330;2023-07-13T05:33:18;28.60;65.00
46562;DHT22;32289;42.688;23.330;2023-07-13T05:36:58;28.50;64.10
46562;DHT22;32289;42.688;23.330;2023-07-13T05:40:39;30.20;59.40
46562;DHT22;32289;42.688;23.330;2023-07-13T05:44:22;30.80;57.80
46562;DHT22;32289;42.688;23.330;2023-07-13T05:48:04;29.50;58.30
46562;DHT22;32289;42.688;23.330;2023-07-13T05:51:45;30.60;57.80
46562;DHT22;32289;42.688;23.330;2023-07-13T05:55:25;28.90;59.30
46562;DHT22;32289;42.688;23.330;2023-07-13T05:59:06;29.50;60.60
46562;DHT22;32289;42.688;23.330;2023-07-13T06:02:47;30.90;57.10
46562;DHT22;32289;42.688;23.330;2023-07-13T06:06:28;30.60;57.60
46562;DHT22;32289;42.688;23.330;2023-07-13T06:10:09;29.50;59.90
46562;DHT22;32289;42.688;23.330;2023-07-13T06:13:50;28.90;63.90
46562;DHT22;32289;42.688;23.330;2023-07-13T06:17:30;29.10;62.10
46562;DHT22;32289;42.688;23.330;2023-07-13T06:21:22;28.80;64.00
46562;DHT22;32289;42.688;23.330;2023-07-13T06:25:03;28.20;65.20
46562;DHT22;32289;42.688;23.330;2023-07-13T06:28:44;29.00;64.10
46562;DHT22;32289;42.688;23.330;2023-07-13T06:32:26;29.00;62.60
46562;DHT22;32289;42.688;23.330;2023-07-13T06:36:08;29.30;64.40
46562;DHT22;32289;42.688;23.330;2023-07-13T06:39:50;29.50;58.90
46562;DHT22;32289;42.688;23.330;2023-07-13T06:43:31;29.90;61.30
46562;DHT22;32289;42.688;23.330;2023-07-13T06:47:12;29.50;61.40
46562;DHT22;32289;42.688;23.330;2023-07-13T06:50:53;29.70;61.40
46562;DHT22;32289;42.688;23.330;2023-07-13T06:54:34;30.00;59.70
46562;DHT22;32289;42.688;23.330;2023-07-13T06:58:16;29.20;59.90
46562;DHT22;32289;42.688;23.330;2023-07-13T07:01:58;30.00;58.80
46562;DHT22;32289;42.688;23.330;2023-07-13T07:05:39;30.40;58.30
46562;DHT22;32289;42.688;23.330;2023-07-13T07:09:20;31.60;56.80
46562;DHT22;32289;42.688;23.330;2023-07-13T07:13:01;33.00;53.60
46562;DHT22;32289;42.688;23.330;2023-07-13T07:16:42;32.30;56.80
46562;DHT22;32289;42.688;23.330;2023-07-13T07:20:23;31.60;56.00
46562;DHT22;32289;42.688;23.330;2023-07-13T07:24:04;31.40;56.60
46562;DHT22;32289;42.688;23.330;2023-07-13T07:27:45;31.00;56.90
46562;DHT22;32289;42.688;23.330;2023-07-13T07:31:26;32.30;53.80
46562;DHT22;32289;42.688;23.330;2023-07-13T07:35:07;31.90;55.70
46562;DHT22;32289;42.688;23.330;2023-07-13T07:38:50;32.80;53.70
46562;DHT22;32289;42.688;23.330;2023-07-13T07:42:31;32.90;52.40
46562;DHT22;32289;42.688;23.330;2023-07-13T07:46:13;32.30;53.40
46562;DHT22;32289;42.688;23.330;2023-07-13T07:49:53;33.70;50.70
46562;DHT22;32289;42.688;23.330;2023-07-13T07:53:39;33.00;52.40
46562;DHT22;32289;42.688;23.330;2023-07-13T07:57:20;33.20;51.20
46562;DHT22;32289;42.688;23.330;2023-07-13T08:01:08;34.40;50.30
46562;DHT22;32289;42.688;23.330;2023-07-13T08:04:48;34.50;49.40
46562;DHT22;32289;42.688;23.330;2023-07-13T08:08:29;34.60;49.20
46562;DHT22;32289;42.688;23.330;2023-07-13T08:12:10;34.20;49.80
46562;DHT22;32289;42.688;23.330;2023-07-13T08:15:51;33.40;51.40
46562;DHT22;32289;42.688;23.330;2023-07-13T08:19:32;34.90;48.30
46562;DHT22;32289;42.688;23.330;2023-07-13T08:23:13;34.70;48.00
46562;DHT22;32289;42.688;23.330;2023-07-13T08:26:54;35.40;49.10
46562;DHT22;32289;42.688;23.330;2023-07-13T08:30:34;36.20;46.20
46562;DHT22;32289;42.688;23.330;2023-07-13T08:34:16;35.30;49.20
46562;DHT22;32289;42.688;23.330;2023-07-13T08:37:57;34.50;50.90
46562;DHT22;32289;42.688;23.330;2023-07-13T08:41:38;34.50;50.40
46562;DHT22;32289;42.688;23.330;2023-07-13T08:45:37;34.30;50.80
46562;DHT22;32289;42.688;23.330;2023-07-13T08:49:22;35.30;49.40
46562;DHT22;32289;42.688;23.330;2023-07-13T08:53:04;37.10;46.30
46562;DHT22;32289;42.688;23.330;2023-07-13T08:56:45;36.30;47.80
46562;DHT22;32289;42.688;23.330;2023-07-13T09:00:45;35.60;48.80
46562;DHT22;32289;42.688;23.330;2023-07-13T09:04:50;35.60;48.30
46562;DHT22;32289;42.688;23.330;2023-07-13T09:12:39;36.00;48.10
46562;DHT22;32289;42.688;23.330;2023-07-13T09:16:25;36.00;47.80
46562;DHT22;32289;42.688;23.330;2023-07-13T09:20:30;36.40;47.80
46562;DHT22;32289;42.688;23.330;2023-07-13T09:24:38;36.40;47.80
46562;DHT22;32289;42.688;23.330;2023-07-13T09:28:27;36.40;47.40
46562;DHT22;32289;42.688;23.330;2023-07-13T09:32:13;36.40;46.30
46562;DHT22;32289;42.688;23.330;2023-07-13T09:35:56;36.60;46.80
46562;DHT22;32289;42.688;23.330;2023-07-13T09:39:40;37.10;46.10
46562;DHT22;32289;42.688;23.330;2023-07-13T09:43:22;36.40;45.80
46562;DHT22;32289;42.688;23.330;2023-07-13T09:47:03;37.50;45.50
46562;DHT22;32289;42.688;23.330;2023-07-13T09:50:57;36.40;46.00
46562;DHT22;32289;42.688;23.330;2023-07-13T09:54:49;38.10;44.20
46562;DHT22;32289;42.688;23.330;2023-07-13T09:58:30;36.50;45.80
46562;DHT22;32289;42.688;23.330;2023-07-13T10:02:32;37.20;44.70
46562;DHT22;32289;42.688;23.330;2023-07-13T10:06:17;36.80;46.00
46562;DHT22;32289;42.688;23.330;2023-07-13T10:10:00;37.00;46.20
46562;DHT22;32289;42.688;23.330;2023-07-13T10:13:55;37.00;45.60
46562;DHT22;32289;42.688;23.330;2023-07-13T10:17:38;37.30;45.20
46562;DHT22;32289;42.688;23.330;2023-07-13T10:21:22;37.00;45.50
46562;DHT22;32289;42.688;23.330;2023-07-13T10:25:24;37.50;44.70
46562;DHT22;32289;42.688;23.330;2023-07-13T10:29:10;38.10;42.40
46562;DHT22;32289;42.688;23.330;2023-07-13T10:32:53;37.90;42.60
46562;DHT22;32289;42.688;23.330;2023-07-13T10:36:43;37.90;40.30
46562;DHT22;32289;42.688;23.330;2023-07-13T10:40:29;38.20;41.80
46562;DHT22;32289;42.688;23.330;2023-07-13T10:44:33;39.20;39.60
46562;DHT22;32289;42.688;23.330;2023-07-13T10:48:17;38.30;39.20
46562;DHT22;32289;42.688;23.330;2023-07-13T10:51:59;38.00;37.80
46562;DHT22;32289;42.688;23.330;2023-07-13T10:59:33;37.70;38.80
46562;DHT22;32289;42.688;23.330;2023-07-13T11:03:19;37.80;39.20
46562;DHT22;32289;42.688;23.330;2023-07-13T11:07:16;37.80;39.00
46562;DHT22;32289;42.688;23.330;2023-07-13T11:10:59;39.10;36.90
46562;DHT22;32289;42.688;23.330;2023-07-13T11:18:39;38.50;36.80
46562;DHT22;32289;42.688;23.330;2023-07-13T11:22:45;38.60;38.10
46562;DHT22;32289;42.688;23.330;2023-07-13T11:34:15;38.50;37.50
46562;DHT22;32289;42.688;23.330;2023-07-13T11:37:57;37.40;38.50
46562;DHT22;32289;42.688;23.330;2023-07-13T11:41:44;37.30;38.90
46562;DHT22;32289;42.688;23.330;2023-07-13T11:45:26;37.70;38.60
46562;DHT22;32289;42.688;23.330;2023-07-13T11:49:11;37.40;39.10
46562;DHT22;32289;42.688;23.330;2023-07-13T11:52:57;37.20;39.70
46562;DHT22;32289;42.688;23.330;2023-07-13T11:56:39;37.50;39.60
46562;DHT22;32289;42.688;23.330;2023-07-13T12:00:29;37.20;40.00
46562;DHT22;32289;42.688;23.330;2023-07-13T12:04:32;37.30;41.10
46562;DHT22;32289;42.688;23.330;2023-07-13T12:08:17;37.50;40.80
46562;DHT22;32289;42.688;23.330;2023-07-13T12:11:58;37.40;41.00
46562;DHT22;32289;42.688;23.330;2023-07-13T12:15:45;37.10;40.10
46562;DHT22;32289;42.688;23.330;2023-07-13T12:19:28;37.10;39.80
46562;DHT22;32289;42.688;23.330;2023-07-13T12:23:32;36.70;39.50
46562;DHT22;32289;42.688;23.330;2023-07-13T12:27:27;37.00;39.40
46562;DHT22;32289;42.688;23.330;2023-07-13T12:31:31;36.80;40.10
46562;DHT22;32289;42.688;23.330;2023-07-13T12:35:17;36.70;40.10
46562;DHT22;32289;42.688;23.330;2023-07-13T12:39:13;36.50;39.80
46562;DHT22;32289;42.688;23.330;2023-07-13T12:42:56;36.70;40.10
46562;DHT22;32289;42.688;23.330;2023-07-13T12:46:36;36.50;39.80
46562;DHT22;32289;42.688;23.330;2023-07-13T12:50:20;36.40;40.00
46562;DHT22;32289;42.688;23.330;2023-07-13T12:54:18;36.50;40.10
46562;DHT22;32289;42.688;23.330;2023-07-13T12:58:03;36.90;40.20
46562;DHT22;32289;42.688;23.330;2023-07-13T13:01:46;36.70;39.10
46562;DHT22;32289;42.688;23.330;2023-07-13T13:05:30;36.60;38.90
46562;DHT22;32289;42.688;23.330;2023-07-13T13:09:14;36.70;39.40
46562;DHT22;32289;42.688;23.330;2023-07-13T13:12:59;36.40;39.60
46562;DHT22;32289;42.688;23.330;2023-07-13T13:16:47;36.60;38.90
46562;DHT22;32289;42.688;23.330;2023-07-13T13:20:29;36.50;39.10
46562;DHT22;32289;42.688;23.330;2023-07-13T13:24:15;36.40;39.10
46562;DHT22;32289;42.688;23.330;2023-07-13T13:27:56;36.30;39.40
46562;DHT22;32289;42.688;23.330;2023-07-13T13:31:37;36.20;39.30
46562;DHT22;32289;42.688;23.330;2023-07-13T13:35:21;36.50;40.50
46562;DHT22;32289;42.688;23.330;2023-07-13T13:43:18;36.50;40.20
46562;DHT22;32289;42.688;23.330;2023-07-13T13:47:05;36.50;40.10
46562;DHT22;32289;42.688;23.330;2023-07-13T13:50:49;36.50;40.80
46562;DHT22;32289;42.688;23.330;2023-07-13T13:54:37;36.20;38.40
46562;DHT22;32289;42.688;23.330;2023-07-13T13:58:19;36.30;39.70
46562;DHT22;32289;42.688;23.330;2023-07-13T14:02:00;36.00;40.00
46562;DHT22;32289;42.688;23.330;2023-07-13T14:05:41;36.20;39.60
46562;DHT22;32289;42.688;23.330;2023-07-13T14:09:21;35.90;39.90
46562;DHT22;32289;42.688;23.330;2023-07-13T14:13:02;35.90;39.70
46562;DHT22;32289;42.688;23.330;2023-07-13T14:16:45;36.00;40.30
46562;DHT22;32289;42.688;23.330;2023-07-13T14:20:33;35.90;40.20
46562;DHT22;32289;42.688;23.330;2023-07-13T14:24:15;35.90;40.40
46562;DHT22;32289;42.688;23.330;2023-07-13T14:27:58;35.80;40.30
46562;DHT22;32289;42.688;23.330;2023-07-13T14:31:48;35.80;40.20
46562;DHT22;32289;42.688;23.330;2023-07-13T14:35:29;35.60;41.20
46562;DHT22;32289;42.688;23.330;2023-07-13T14:39:16;35.50;40.80
46562;DHT22;32289;42.688;23.330;2023-07-13T14:42:58;35.40;40.80
46562;DHT22;32289;42.688;23.330;2023-07-13T14:46:39;35.40;41.80
46562;DHT22;32289;42.688;23.330;2023-07-13T14:50:30;35.40;41.50
46562;DHT22;32289;42.688;23.330;2023-07-13T14:54:11;35.40;41.40
46562;DHT22;32289;42.688;23.330;2023-07-13T14:57:52;35.30;42.20
46562;DHT22;32289;42.688;23.330;2023-07-13T15:01:34;35.40;41.70
46562;DHT22;32289;42.688;23.330;2023-07-13T15:05:19;35.40;42.50
46562;DHT22;32289;42.688;23.330;2023-07-13T15:09:00;35.10;43.20
46562;DHT22;32289;42.688;23.330;2023-07-13T15:12:41;35.20;43.90
46562;DHT22;32289;42.688;23.330;2023-07-13T15:16:24;35.10;44.10
46562;DHT22;32289;42.688;23.330;2023-07-13T15:20:30;35.10;44.20
46562;DHT22;32289;42.688;23.330;2023-07-13T15:24:11;35.00;43.90
46562;DHT22;32289;42.688;23.330;2023-07-13T15:27:52;34.90;43.10
46562;DHT22;32289;42.688;23.330;2023-07-13T15:31:34;34.80;43.40
46562;DHT22;32289;42.688;23.330;2023-07-13T15:35:25;34.70;43.60
46562;DHT22;32289;42.688;23.330;2023-07-13T15:39:14;34.80;43.40
46562;DHT22;32289;42.688;23.330;2023-07-13T15:42:58;34.80;44.10
46562;DHT22;32289;42.688;23.330;2023-07-13T15:46:39;34.60;44.70
46562;DHT22;32289;42.688;23.330;2023-07-13T15:50:22;34.50;44.60
46562;DHT22;32289;42.688;23.330;2023-07-13T15:54:04;34.50;45.20
46562;DHT22;32289;42.688;23.330;2023-07-13T15:57:51;34.30;45.30
46562;DHT22;32289;42.688;23.330;2023-07-13T16:01:33;34.30;44.60
46562;DHT22;32289;42.688;23.330;2023-07-13T16:05:15;34.20;45.40
46562;DHT22;32289;42.688;23.330;2023-07-13T16:08:57;34.20;45.10
46562;DHT22;32289;42.688;23.330;2023-07-13T16:12:39;34.10;45.70
46562;DHT22;32289;42.688;23.330;2023-07-13T16:16:21;34.10;46.10
46562;DHT22;32289;42.688;23.330;2023-07-13T16:20:06;34.00;46.70
46562;DHT22;32289;42.688;23.330;2023-07-13T16:23:51;33.90;45.80
46562;DHT22;32289;42.688;23.330;2023-07-13T16:27:32;33.80;46.60
46562;DHT22;32289;42.688;23.330;2023-07-13T16:31:14;33.70;47.10
46562;DHT22;32289;42.688;23.330;2023-07-13T16:34:55;33.60;47.10
46562;DHT22;32289;42.688;23.330;2023-07-13T16:38:36;33.50;47.90
46562;DHT22;32289;42.688;23.330;2023-07-13T16:42:17;33.40;48.70
46562;DHT22;32289;42.688;23.330;2023-07-13T16:46:00;33.20;48.10
46562;DHT22;32289;42.688;23.330;2023-07-13T16:49:45;33.20;49.20
46562;DHT22;32289;42.688;23.330;2023-07-13T16:53:29;33.10;48.70
46562;DHT22;32289;42.688;23.330;2023-07-13T16:57:19;33.00;48.60
46562;DHT22;32289;42.688;23.330;2023-07-13T17:01:00;32.90;49.30
46562;DHT22;32289;42.688;23.330;2023-07-13T17:04:45;32.70;50.10
46562;DHT22;32289;42.688;23.330;2023-07-13T17:08:30;32.80;50.10
46562;DHT22;32289;42.688;23.330;2023-07-13T17:12:12;32.70;51.20
46562;DHT22;32289;42.688;23.330;2023-07-13T17:15:54;32.40;51.20
46562;DHT22;32289;42.688;23.330;2023-07-13T17:19:39;32.50;50.20
46562;DHT22;32289;42.688;23.330;2023-07-13T17:23:26;32.40;51.00
46562;DHT22;32289;42.688;23.330;2023-07-13T17:27:06;32.20;52.10
46562;DHT22;32289;42.688;23.330;2023-07-13T17:30:49;32.10;52.50
46562;DHT22;32289;42.688;23.330;2023-07-13T17:34:30;32.00;51.90
46562;DHT22;32289;42.688;23.330;2023-07-13T17:38:11;31.80;52.40
46562;DHT22;32289;42.688;23.330;2023-07-13T17:41:57;31.70;52.60
46562;DHT22;32289;42.688;23.330;2023-07-13T17:45:39;31.60;52.70
46562;DHT22;32289;42.688;23.330;2023-07-13T17:49:24;31.40;52.00
46562;DHT22;32289;42.688;23.330;2023-07-13T17:53:18;31.30;51.90
46562;DHT22;32289;42.688;23.330;2023-07-13T17:56:58;31.20;52.70
46562;DHT22;32289;42.688;23.330;2023-07-13T18:00:42;31.10;53.50
46562;DHT22;32289;42.688;23.330;2023-07-13T18:04:23;31.10;54.30
46562;DHT22;32289;42.688;23.330;2023-07-13T18:12:03;31.00;54.90
46562;DHT22;32289;42.688;23.330;2023-07-13T18:15:45;30.80;55.20
46562;DHT22;32289;42.688;23.330;2023-07-13T18:19:36;30.70;55.70
46562;DHT22;32289;42.688;23.330;2023-07-13T18:23:21;30.50;57.20
46562;DHT22;32289;42.688;23.330;2023-07-13T18:27:02;30.50;57.10
46562;DHT22;32289;42.688;23.330;2023-07-13T18:30:51;30.40;56.50
46562;DHT22;32289;42.688;23.330;2023-07-13T18:34:39;30.40;56.10
46562;DHT22;32289;42.688;23.330;2023-07-13T18:38:24;30.40;57.70
46562;DHT22;32289;42.688;23.330;2023-07-13T18:42:12;30.00;58.60
46562;DHT22;32289;42.688;23.330;2023-07-13T18:45:55;30.00;58.70
46562;DHT22;32289;42.688;23.330;2023-07-13T18:49:36;30.00;58.80
46562;DHT22;32289;42.688;23.330;2023-07-13T18:53:18;29.90;60.10
46562;DHT22;32289;42.688;23.330;2023-07-13T18:57:00;29.80;61.00
46562;DHT22;32289;42.688;23.330;2023-07-13T19:00:42;29.70;60.90
46562;DHT22;32289;42.688;23.330;2023-07-13T19:04:28;29.70;62.30
46562;DHT22;32289;42.688;23.330;2023-07-13T19:08:18;29.60;61.20
46562;DHT22;32289;42.688;23.330;2023-07-13T19:11:59;29.50;61.60
46562;DHT22;32289;42.688;23.330;2023-07-13T19:15:40;29.50;61.50
46562;DHT22;32289;42.688;23.330;2023-07-13T19:19:22;29.40;61.10
46562;DHT22;32289;42.688;23.330;2023-07-13T19:23:05;29.30;63.00
46562;DHT22;32289;42.688;23.330;2023-07-13T19:26:47;28.90;64.60
46562;DHT22;32289;42.688;23.330;2023-07-13T19:30:31;28.80;64.90
46562;DHT22;32289;42.688;23.330;2023-07-13T19:34:23;28.60;66.90
46562;DHT22;32289;42.688;23.330;2023-07-13T19:38:04;28.40;67.00
46562;DHT22;32289;42.688;23.330;2023-07-13T19:41:45;28.60;66.40
46562;DHT22;32289;42.688;23.330;2023-07-13T19:45:26;28.60;64.90
46562;DHT22;32289;42.688;23.330;2023-07-13T19:49:06;28.70;65.10
46562;DHT22;32289;42.688;23.330;2023-07-13T19:52:56;28.70;65.10
46562;DHT22;32289;42.688;23.330;2023-07-13T19:56:37;28.60;64.60
46562;DHT22;32289;42.688;23.330;2023-07-13T20:00:25;28.30;66.80
46562;DHT22;32289;42.688;23.330;2023-07-13T20:04:06;28.10;67.50
46562;DHT22;32289;42.688;23.330;2023-07-13T20:07:55;27.80;69.30
46562;DHT22;32289;42.688;23.330;2023-07-13T20:11:36;27.90;68.60
46562;DHT22;32289;42.688;23.330;2023-07-13T20:15:20;27.50;70.00
46562;DHT22;32289;42.688;23.330;2023-07-13T20:19:01;27.30;72.80
46562;DHT22;32289;42.688;23.330;2023-07-13T20:22:44;27.00;73.50
46562;DHT22;32289;42.688;23.330;2023-07-13T20:26:24;26.90;74.40
46562;DHT22;32289;42.688;23.330;2023-07-13T20:30:09;27.00;73.70
46562;DHT22;32289;42.688;23.330;2023-07-13T20:33:49;27.00;72.70
46562;DHT22;32289;42.688;23.330;2023-07-13T20:37:38;26.90;73.30
46562;DHT22;32289;42.688;23.330;2023-07-13T20:41:19;26.80;73.70
46562;DHT22;32289;42.688;23.330;2023-07-13T20:44:59;26.70;73.60
46562;DHT22;32289;42.688;23.330;2023-07-13T20:48:44;26.50;74.90
46562;DHT22;32289;42.688;23.330;2023-07-13T20:52:30;26.50;75.80
46562;DHT22;32289;42.688;23.330;2023-07-13T20:56:15;26.20;75.70
46562;DHT22;32289;42.688;23.330;2023-07-13T20:59:57;26.20;76.40
46562;DHT22;32289;42.688;23.330;2023-07-13T21:03:38;26.20;77.10
46562;DHT22;32289;42.688;23.330;2023-07-13T21:07:19;26.20;76.50
46562;DHT22;32289;42.688;23.330;2023-07-13T21:11:00;26.10;77.50
46562;DHT22;32289;42.688;23.330;2023-07-13T21:14:41;26.00;77.60
46562;DHT22;32289;42.688;23.330;2023-07-13T21:18:24;25.90;78.00
46562;DHT22;32289;42.688;23.330;2023-07-13T21:22:08;25.80;79.10
46562;DHT22;32289;42.688;23.330;2023-07-13T21:25:50;25.60;80.20
46562;DHT22;32289;42.688;23.330;2023-07-13T21:29:30;25.70;80.70
46562;DHT22;32289;42.688;23.330;2023-07-13T21:33:12;25.80;80.40
46562;DHT22;32289;42.688;23.330;2023-07-13T21:36:56;25.80;81.20
46562;DHT22;32289;42.688;23.330;2023-07-13T21:40:40;25.60;82.10
46562;DHT22;32289;42.688;23.330;2023-07-13T21:44:27;25.60;82.20
46562;DHT22;32289;42.688;23.330;2023-07-13T21:48:08;25.60;82.50
46562;DHT22;32289;42.688;23.330;2023-07-13T21:51:52;25.80;80.80
46562;DHT22;32289;42.688;23.330;2023-07-13T21:55:33;25.80;82.40
46562;DHT22;32289;42.688;23.330;2023-07-13T21:59:32;25.70;81.60
46562;DHT22;32289;42.688;23.330;2023-07-13T22:03:34;25.80;80.90
46562;DHT22;32289;42.688;23.330;2023-07-13T22:07:16;25.70;81.30
46562;DHT22;32289;42.688;23.330;2023-07-13T22:10:58;25.70;83.20
46562;DHT22;32289;42.688;23.330;2023-07-13T22:14:40;25.40;84.80
46562;DHT22;32289;42.688;23.330;2023-07-13T22:18:21;25.20;86.30
46562;DHT22;32289;42.688;23.330;2023-07-13T22:22:03;25.10;86.80
46562;DHT22;32289;42.688;23.330;2023-07-13T22:25:48;25.00;90.10
46562;DHT22;32289;42.688;23.330;2023-07-13T22:29:32;24.90;90.40
46562;DHT22;32289;42.688;23.330;2023-07-13T22:33:19;24.60;90.20
46562;DHT22;32289;42.688;23.330;2023-07-13T22:37:00;24.60;90.50
46562;DHT22;32289;42.688;23.330;2023-07-13T22:40:42;24.60;91.10
46562;DHT22;32289;42.688;23.330;2023-07-13T22:44:25;24.50;91.40
46562;DHT22;32289;42.688;23.330;2023-07-13T22:48:13;24.50;91.30
46562;DHT22;32289;42.688;23.330;2023-07-13T22:51:55;24.50;92.20
46562;DHT22;32289;42.688;23.330;2023-07-13T22:55:38;24.40;91.30
46562;DHT22;32289;42.688;23.330;2023-07-13T22:59:21;24.50;91.60
46562;DHT22;32289;42.688;23.330;2023-07-13T23:03:05;24.40;90.90
46562;DHT22;32289;42.688;23.330;2023-07-13T23:06:48;24.30;92.40
46562;DHT22;32289;42.688;23.330;2023-07-13T23:10:33;24.40;90.00
46562;DHT22;32289;42.688;23.330;2023-07-13T23:14:14;24.40;88.40
46562;DHT22;32289;42.688;23.330;2023-07-13T23:17:54;24.40;90.00
46562;DHT22;32289;42.688;23.330;2023-07-13T23:21:35;24.20;90.60
46562;DHT22;32289;42.688;23.330;2023-07-13T23:25:18;24.20;90.80
46562;DHT22;32289;42.688;23.330;2023-07-13T23:29:00;24.00;91.50
46562;DHT22;32289;42.688;23.330;2023-07-13T23:32:43;24.00;91.60
46562;DHT22;32289;42.688;23.330;2023-07-13T23:36:25;23.90;91.70
46562;DHT22;32289;42.688;23.330;2023-07-13T23:40:20;23.90;92.00